Park Rapids, Minnesota
Current Conditions -  °F | °C
As of 10:18 PM on Monday 22 Dec 2014 (Local Time) from KPKD Reporting Station
Light Snow Light Snow  
Wind Chill: 29°   Ceiling: 500
Heat Index: 34°   Visibility: 2.5mi
Dew Point: 32°   Wind: 6mph
Humidity: 92%   Direction: 70°ENE
Pressure: 29.67"   Gusts: NA
Location:  46.92°N, 95.06°W
Report Text: KPKD 230418Z AUTO 07005KT 2 1/2SM -SN BR OVC005 01/00 A2967 RMK AO2 CIG 003V008 P0000 T00110000
Loading
Personal Weather Stations






























Interactive Weather Map New forecast layout! Learn more

10-Day Weather Forecast

Advertisements
Track Severe Weather on mobile